createdAt,value
2022-08-02T00:00:16.620Z,68.33
2022-08-02T00:02:45.024Z,68.65
2022-08-02T00:05:17.216Z,68.48
2022-08-02T00:07:45.050Z,68.68
2022-08-02T00:10:13.789Z,68.74
2022-08-02T00:12:41.627Z,68.47
2022-08-02T00:15:16.347Z,68.57
2022-08-02T00:17:45.569Z,68.72
2022-08-02T00:20:16.820Z,68.96
2022-08-02T00:22:45.095Z,68.89
2022-08-02T00:25:13.026Z,68.84
2022-08-02T00:27:40.944Z,69.09
2022-08-02T00:30:09.905Z,69.15
2022-08-02T00:32:37.723Z,69.13
2022-08-02T00:35:06.393Z,69.23
2022-08-02T00:37:40.098Z,69.41
2022-08-02T00:40:09.195Z,69.34
2022-08-02T00:42:37.164Z,69.29
2022-08-02T00:45:05.573Z,69.61
2022-08-02T00:47:33.380Z,69.96
2022-08-02T00:50:01.626Z,69.72
2022-08-02T00:52:29.510Z,70.21
2022-08-02T00:54:58.717Z,70.21
2022-08-02T00:57:26.573Z,70.64
2022-08-02T00:59:54.375Z,70.32
2022-08-02T01:02:22.483Z,70.66
2022-08-02T01:04:50.377Z,70.74
2022-08-02T01:07:18.735Z,70.89
2022-08-02T01:09:49.320Z,70.78
2022-08-02T01:12:18.591Z,71.38
2022-08-02T01:14:50.057Z,71.04
2022-08-02T01:17:24.090Z,71.10
2022-08-02T01:20:01.642Z,71.55
2022-08-02T01:23:03.565Z,72.01
2022-08-02T01:25:54.763Z,71.95
2022-08-02T01:28:37.385Z,71.51
2022-08-02T01:31:17.947Z,72.10
2022-08-02T01:33:52.166Z,72.25
2022-08-02T01:36:23.292Z,72.10
2022-08-02T01:38:54.011Z,72.52
2022-08-02T01:41:25.153Z,72.36
2022-08-02T01:43:58.940Z,72.44
2022-08-02T01:46:29.041Z,72.47
2022-08-02T01:48:59.209Z,72.42
2022-08-02T01:51:43.171Z,72.41
2022-08-02T01:54:16.605Z,72.32
2022-08-02T01:56:46.621Z,72.34
2022-08-02T01:59:19.832Z,72.69
2022-08-02T02:01:50.187Z,72.38
2022-08-02T02:04:18.774Z,72.07
2022-08-02T02:06:48.700Z,72.73
2022-08-02T02:09:17.271Z,72.45
2022-08-02T02:12:09.478Z,72.33
2022-08-02T02:14:38.431Z,72.15
2022-08-02T02:17:08.189Z,72.57
2022-08-02T02:19:59.208Z,72.66
2022-08-02T02:22:27.377Z,72.59
2022-08-02T02:24:55.548Z,72.64
2022-08-02T02:27:24.952Z,72.79
2022-08-02T02:29:55.890Z,72.56
2022-08-02T02:32:26.482Z,72.66
2022-08-02T02:34:56.605Z,72.71
2022-08-02T02:37:27.689Z,73.30
2022-08-02T02:39:58.164Z,73.38
2022-08-02T02:42:31.306Z,73.14
2022-08-02T02:45:01.206Z,73.41
2022-08-02T02:47:40.348Z,73.53
2022-08-02T02:50:10.850Z,73.58
2022-08-02T02:52:40.873Z,73.33
2022-08-02T02:55:11.170Z,73.23
2022-08-02T02:57:40.038Z,73.77
2022-08-02T03:00:12.807Z,73.23
2022-08-02T03:02:42.461Z,73.49
2022-08-02T03:05:12.003Z,73.84
2022-08-02T03:07:40.636Z,73.59
2022-08-02T03:10:09.939Z,73.53
2022-08-02T03:12:38.467Z,73.63
2022-08-02T03:15:11.421Z,74.03
2022-08-02T03:17:43.601Z,74.31
2022-08-02T03:20:14.191Z,73.97
2022-08-02T03:22:42.876Z,74.12
2022-08-02T03:25:11.418Z,74.30
2022-08-02T03:27:39.500Z,74.43
2022-08-02T03:30:12.758Z,74.38
2022-08-02T03:32:42.411Z,74.63
2022-08-02T03:35:13.347Z,74.63
2022-08-02T03:37:42.045Z,74.74
2022-08-02T03:40:13.672Z,74.94
2022-08-02T03:42:42.399Z,74.94
2022-08-02T03:45:14.805Z,74.42
2022-08-02T03:47:44.223Z,74.62
2022-08-02T03:50:13.729Z,74.26
2022-08-02T03:52:43.471Z,74.79
2022-08-02T03:55:12.565Z,74.70
2022-08-02T03:57:41.706Z,74.70
2022-08-02T04:00:14.125Z,75.00
2022-08-02T04:02:42.159Z,74.98
2022-08-02T04:05:10.441Z,75.00
2022-08-02T04:08:34.490Z,75.01
2022-08-02T04:10:26.901Z,75.51
2022-08-02T04:12:55.659Z,75.44
2022-08-02T04:15:25.765Z,75.49
2022-08-02T04:17:57.826Z,75.42
2022-08-02T04:20:29.485Z,75.41
2022-08-02T04:23:01.511Z,75.57
2022-08-02T04:25:35.776Z,75.11
2022-08-02T04:28:17.027Z,75.42
2022-08-02T04:30:48.501Z,75.80
2022-08-02T04:33:16.877Z,75.65
2022-08-02T04:35:45.970Z,75.93
2022-08-02T04:38:15.757Z,76.00
2022-08-02T04:40:52.332Z,76.29
2022-08-02T04:43:20.837Z,76.18
2022-08-02T04:45:52.543Z,76.03
2022-08-02T04:48:20.680Z,76.49
2022-08-02T04:50:48.586Z,76.62
2022-08-02T04:53:16.552Z,76.44
2022-08-02T04:55:44.520Z,76.83
2022-08-02T04:58:37.436Z,76.95
2022-08-02T05:01:01.974Z,76.59
2022-08-02T05:03:29.915Z,76.98
2022-08-02T05:05:57.772Z,76.98
2022-08-02T05:08:25.639Z,77.26
2022-08-02T05:10:54.150Z,77.62
2022-08-02T05:13:22.107Z,77.71
2022-08-02T05:15:50.603Z,77.46
2022-08-02T05:18:21.359Z,78.08
2022-08-02T05:20:49.870Z,78.17
2022-08-02T05:23:17.710Z,78.52
2022-08-02T05:25:45.863Z,78.12
2022-08-02T05:28:13.897Z,78.26
2022-08-02T05:30:41.853Z,79.15
2022-08-02T05:33:09.824Z,78.69
2022-08-02T05:35:42.380Z,79.37
2022-08-02T05:38:10.515Z,79.24
2022-08-02T05:40:54.808Z,79.30
2022-08-02T05:43:23.382Z,79.70
2022-08-02T05:45:53.542Z,80.20
2022-08-02T05:48:22.025Z,80.38
2022-08-02T05:51:04.141Z,80.94
2022-08-02T05:53:38.151Z,81.19
2022-08-02T05:56:17.451Z,81.29
2022-08-02T05:58:54.238Z,82.06
2022-08-02T06:01:29.751Z,82.59
2022-08-02T06:04:00.809Z,82.64
2022-08-02T06:06:33.518Z,83.13
2022-08-02T06:09:04.174Z,83.25
2022-08-02T06:11:36.909Z,83.37
2022-08-02T06:14:06.409Z,83.49
2022-08-02T06:16:37.620Z,83.92
2022-08-02T06:19:10.647Z,84.34
2022-08-02T06:22:32.371Z,84.94
2022-08-02T06:24:31.744Z,85.08
2022-08-02T06:27:00.883Z,85.09
2022-08-02T06:29:29.567Z,85.60
2022-08-02T06:31:58.057Z,86.25
2022-08-02T06:34:26.122Z,85.73
2022-08-02T06:37:07.624Z,85.99
2022-08-02T06:39:44.684Z,84.91
2022-08-02T06:42:16.527Z,84.25
2022-08-02T06:44:57.680Z,83.32
2022-08-02T06:47:25.933Z,82.68
2022-08-02T06:49:54.946Z,82.47
2022-08-02T06:52:30.961Z,81.63
2022-08-02T06:55:00.852Z,81.37
2022-08-02T06:57:29.198Z,81.21
2022-08-02T06:59:57.106Z,81.16
2022-08-02T07:02:25.412Z,79.70
2022-08-02T07:04:53.520Z,79.01
2022-08-02T07:07:21.509Z,78.13
2022-08-02T07:09:56.984Z,77.39
2022-08-02T07:12:31.003Z,76.78
2022-08-02T07:14:59.573Z,74.80
2022-08-02T07:17:27.734Z,74.40
2022-08-02T07:19:55.734Z,75.15
2022-08-02T07:22:24.631Z,74.49
2022-08-02T07:24:54.978Z,72.33
2022-08-02T07:27:23.296Z,72.23
2022-08-02T07:29:51.268Z,72.03
2022-08-02T07:32:19.897Z,71.19
2022-08-02T07:34:52.742Z,70.96
2022-08-02T07:37:35.877Z,70.69
2022-08-02T07:40:15.279Z,69.45
2022-08-02T07:42:48.845Z,69.15
2022-08-02T07:45:16.859Z,67.10
2022-08-02T07:47:45.928Z,66.30
2022-08-02T07:50:15.493Z,67.32
2022-08-02T07:52:44.377Z,66.20
2022-08-02T07:55:15.140Z,66.21
2022-08-02T07:57:46.443Z,63.15
2022-08-02T08:00:17.216Z,63.01
2022-08-02T08:02:45.679Z,59.47
2022-08-02T08:05:14.056Z,61.34
2022-08-02T08:07:42.246Z,61.63
2022-08-02T08:10:11.212Z,61.37
2022-08-02T08:12:40.649Z,59.89
2022-08-02T08:15:09.586Z,59.18
2022-08-02T08:17:38.390Z,58.22
2022-08-02T08:20:07.551Z,58.78
2022-08-02T08:22:35.523Z,56.88
2022-08-02T08:25:04.102Z,56.73
2022-08-02T08:27:32.312Z,54.23
2022-08-02T08:30:01.580Z,53.76
2022-08-02T08:32:29.567Z,54.25
2022-08-02T08:34:57.528Z,55.40
2022-08-02T08:37:25.456Z,55.67
2022-08-02T08:39:57.154Z,54.65
2022-08-02T08:42:27.355Z,54.36
2022-08-02T08:44:56.109Z,53.55
2022-08-02T08:47:33.800Z,53.20
2022-08-02T08:50:05.534Z,54.02
2022-08-02T08:52:37.155Z,52.88
2022-08-02T08:55:06.834Z,52.34
2022-08-02T08:57:38.579Z,52.98
2022-08-02T09:00:07.636Z,51.89
2022-08-02T09:02:37.770Z,50.87
2022-08-02T09:05:06.523Z,51.65
2022-08-02T09:07:34.415Z,51.89
2022-08-02T09:10:02.345Z,51.40
2022-08-02T09:12:30.272Z,52.42
2022-08-02T09:14:58.256Z,50.80
2022-08-02T09:17:26.168Z,50.40
2022-08-02T09:20:09.629Z,50.87
2022-08-02T09:22:37.600Z,50.91
2022-08-02T09:25:06.266Z,49.89
2022-08-02T09:27:38.171Z,48.55
2022-08-02T09:30:15.500Z,49.29
2022-08-02T09:32:50.053Z,49.27
2022-08-02T09:36:06.828Z,46.95
2022-08-02T09:38:25.953Z,48.74
2022-08-02T09:40:54.274Z,48.51
2022-08-02T09:43:22.484Z,48.47
2022-08-02T09:45:50.355Z,47.97
2022-08-02T09:48:18.270Z,47.84
2022-08-02T09:50:47.524Z,47.28
2022-08-02T09:53:15.555Z,47.85
2022-08-02T09:55:43.954Z,47.20
2022-08-02T09:58:19.478Z,46.81
2022-08-02T10:00:55.011Z,46.03
2022-08-02T10:03:23.048Z,46.71
2022-08-02T10:06:03.121Z,46.77
2022-08-02T10:08:33.515Z,47.21
2022-08-02T10:11:02.598Z,46.83
2022-08-02T10:13:32.606Z,46.00
2022-08-02T10:16:00.578Z,46.68
2022-08-02T10:18:38.768Z,46.41
2022-08-02T10:21:14.725Z,46.33
2022-08-02T10:23:45.636Z,46.73
2022-08-02T10:26:18.790Z,46.53
2022-08-02T10:28:49.570Z,46.35
2022-08-02T10:31:24.663Z,46.07
2022-08-02T10:33:55.303Z,45.50
2022-08-02T10:36:27.315Z,46.53
2022-08-02T10:38:58.678Z,46.89
2022-08-02T10:41:43.663Z,45.94
2022-08-02T10:44:24.503Z,44.28
2022-08-02T10:46:53.689Z,45.07
2022-08-02T10:49:40.012Z,44.05
2022-08-02T10:52:11.066Z,44.20
2022-08-02T10:54:41.005Z,44.51
2022-08-02T10:57:21.347Z,42.50
2022-08-02T10:59:50.822Z,42.73
2022-08-02T11:02:45.119Z,42.88
2022-08-02T11:05:18.107Z,42.94
2022-08-02T11:07:49.638Z,42.86
2022-08-02T11:10:38.972Z,42.57
2022-08-02T11:13:15.135Z,42.15
2022-08-02T11:15:59.192Z,41.67
2022-08-02T11:19:00.573Z,41.70
2022-08-02T11:21:30.280Z,42.55
2022-08-02T11:24:31.261Z,41.97
2022-08-02T11:27:00.323Z,42.43
2022-08-02T11:29:39.994Z,42.87
2022-08-02T11:32:16.207Z,41.74
2022-08-02T11:34:45.599Z,42.29
2022-08-02T11:37:13.621Z,42.00
2022-08-02T11:39:51.610Z,41.88
2022-08-02T11:42:19.684Z,41.73
2022-08-02T11:44:49.303Z,41.12
2022-08-02T11:47:17.177Z,41.58
2022-08-02T11:49:45.530Z,41.20
2022-08-02T11:52:13.743Z,41.62
2022-08-02T11:54:44.728Z,40.58
2022-08-02T11:57:19.263Z,40.84
2022-08-02T11:59:51.537Z,40.99
2022-08-02T12:02:20.929Z,41.50
2022-08-02T12:04:58.526Z,40.29
2022-08-02T12:07:34.746Z,40.34
2022-08-02T12:10:09.989Z,40.93
2022-08-02T12:12:50.984Z,39.58
2022-08-02T12:15:34.259Z,40.37
2022-08-02T12:18:20.342Z,40.55
2022-08-02T12:20:48.513Z,39.61
2022-08-02T12:23:16.748Z,40.45
2022-08-02T12:25:46.333Z,40.37
2022-08-02T12:28:17.745Z,40.05
2022-08-02T12:30:54.600Z,40.67
2022-08-02T12:33:23.726Z,40.63
2022-08-02T12:35:52.868Z,40.65
2022-08-02T12:38:21.212Z,40.52
2022-08-02T12:40:50.827Z,39.89
2022-08-02T12:43:21.507Z,39.87
2022-08-02T12:45:53.439Z,40.18
2022-08-02T12:48:37.686Z,39.87
2022-08-02T12:51:20.598Z,39.14
2022-08-02T12:53:59.862Z,39.88
2022-08-02T12:56:31.746Z,40.01
2022-08-02T12:59:00.140Z,40.52
2022-08-02T13:01:29.913Z,40.42
2022-08-02T13:04:10.056Z,39.74
2022-08-02T13:06:44.450Z,39.63
2022-08-02T13:09:16.052Z,40.09
2022-08-02T13:11:48.120Z,40.32
2022-08-02T13:14:16.657Z,39.68
2022-08-02T13:16:46.391Z,39.17
2022-08-02T13:19:15.593Z,38.36
2022-08-02T13:22:11.197Z,39.36
2022-08-02T13:24:40.076Z,39.00
2022-08-02T13:27:23.714Z,39.09
2022-08-02T13:29:51.792Z,38.21
2022-08-02T13:32:23.798Z,36.86
2022-08-02T13:34:52.095Z,37.49
2022-08-02T13:37:20.382Z,38.88
2022-08-02T13:40:11.853Z,37.60
2022-08-02T13:42:41.651Z,36.06
2022-08-02T13:45:12.044Z,36.66
2022-08-02T13:47:57.430Z,35.47
2022-08-02T13:50:31.206Z,36.33
2022-08-02T13:53:01.635Z,36.56
2022-08-02T13:55:29.596Z,36.11
2022-08-02T13:57:59.278Z,36.07
2022-08-02T14:00:35.828Z,37.12
2022-08-02T14:03:07.826Z,37.39
2022-08-02T14:05:48.182Z,36.97
2022-08-02T14:08:17.959Z,35.88
2022-08-02T14:10:46.962Z,36.18
2022-08-02T14:13:16.876Z,35.56
2022-08-02T14:15:45.412Z,36.04
2022-08-02T14:18:14.906Z,36.58
2022-08-02T14:20:43.080Z,36.00
2022-08-02T14:23:10.936Z,36.17
2022-08-02T14:25:39.090Z,35.99
2022-08-02T14:28:07.136Z,35.74
2022-08-02T14:30:37.015Z,35.15
2022-08-02T14:33:05.151Z,35.06
2022-08-02T14:35:33.369Z,35.25
2022-08-02T14:38:01.355Z,35.45
2022-08-02T14:40:31.649Z,35.67
2022-08-02T14:43:00.907Z,34.62
2022-08-02T14:45:40.961Z,36.40
2022-08-02T14:48:12.421Z,35.74
2022-08-02T14:50:40.721Z,35.28
2022-08-02T14:53:12.466Z,35.71
2022-08-02T14:55:43.938Z,34.75
2022-08-02T14:58:12.285Z,34.89
2022-08-02T15:00:43.743Z,34.96
2022-08-02T15:03:15.645Z,34.89
2022-08-02T15:05:43.631Z,34.93
2022-08-02T15:08:11.716Z,35.18
2022-08-02T15:10:45.461Z,33.77
2022-08-02T15:13:13.507Z,34.25
2022-08-02T15:15:43.704Z,35.58
2022-08-02T15:18:14.408Z,34.93
2022-08-02T15:20:47.793Z,35.13
2022-08-02T15:23:37.334Z,34.60
2022-08-02T15:26:07.412Z,34.56
2022-08-02T15:28:35.967Z,34.64
2022-08-02T15:31:03.932Z,34.58
2022-08-02T15:33:33.264Z,34.73
2022-08-02T15:36:01.246Z,34.84
2022-08-02T15:38:29.100Z,34.54
2022-08-02T15:40:58.985Z,34.84
2022-08-02T15:43:27.181Z,34.62
2022-08-02T15:45:55.259Z,34.43
2022-08-02T15:48:23.191Z,35.25
2022-08-02T15:50:52.675Z,34.22
2022-08-02T15:53:22.883Z,35.06
2022-08-02T15:55:52.656Z,35.29
2022-08-02T15:58:34.592Z,35.07
2022-08-02T16:01:12.090Z,35.66
2022-08-02T16:03:40.295Z,35.73
2022-08-02T16:06:09.658Z,35.53
2022-08-02T16:08:51.688Z,35.63
2022-08-02T16:11:22.689Z,35.97
2022-08-02T16:13:56.787Z,35.56
2022-08-02T16:16:26.816Z,35.41
2022-08-02T16:18:55.571Z,35.69
2022-08-02T16:21:25.065Z,35.94
2022-08-02T16:24:01.759Z,36.52
2022-08-02T16:26:31.887Z,36.37
2022-08-02T16:29:00.522Z,35.40
2022-08-02T16:31:28.625Z,35.97
2022-08-02T16:33:57.434Z,35.99
2022-08-02T16:36:28.077Z,35.84
2022-08-02T16:38:56.765Z,35.72
2022-08-02T16:41:50.716Z,36.21
2022-08-02T16:44:15.742Z,35.85
2022-08-02T16:46:45.443Z,35.41
2022-08-02T16:50:04.956Z,35.78
2022-08-02T16:52:06.104Z,35.61
2022-08-02T16:54:38.266Z,35.67
2022-08-02T16:57:07.636Z,35.47
2022-08-02T16:59:42.139Z,35.01
2022-08-02T17:02:18.094Z,35.31
2022-08-02T17:04:46.568Z,35.96
2022-08-02T17:08:06.377Z,35.59
2022-08-02T17:10:06.454Z,36.01
2022-08-02T17:12:37.260Z,36.08
2022-08-02T17:16:07.641Z,35.53
2022-08-02T17:17:54.372Z,35.38
2022-08-02T17:20:23.518Z,35.60
2022-08-02T17:22:53.829Z,35.86
2022-08-02T17:25:22.268Z,35.92
2022-08-02T17:27:56.014Z,35.97
2022-08-02T17:30:26.542Z,36.14
2022-08-02T17:32:57.663Z,36.83
2022-08-02T17:35:51.851Z,36.61
2022-08-02T17:38:26.634Z,37.34
2022-08-02T17:40:56.126Z,36.79
2022-08-02T17:43:32.744Z,37.05
2022-08-02T17:46:02.496Z,36.93
2022-08-02T17:48:55.056Z,36.69
2022-08-02T17:52:16.133Z,36.79
2022-08-02T17:54:13.814Z,37.37
2022-08-02T17:56:42.537Z,37.06
2022-08-02T17:59:20.917Z,37.71
2022-08-02T18:01:52.846Z,37.58
2022-08-02T18:04:27.575Z,37.75
2022-08-02T18:06:57.849Z,37.56
2022-08-02T18:09:28.136Z,37.81
2022-08-02T18:11:56.656Z,38.25
2022-08-02T18:14:26.425Z,37.97
2022-08-02T18:16:54.533Z,38.31
2022-08-02T18:19:22.586Z,38.35
2022-08-02T18:21:50.712Z,38.95
2022-08-02T18:24:19.431Z,38.47
2022-08-02T18:26:53.488Z,39.03
2022-08-02T18:29:21.411Z,39.38
2022-08-02T18:32:00.616Z,40.29
2022-08-02T18:34:31.506Z,40.18
2022-08-02T18:36:59.537Z,40.33
2022-08-02T18:39:27.742Z,40.47
2022-08-02T18:42:02.510Z,39.77
2022-08-02T18:44:31.141Z,40.23
2022-08-02T18:46:59.197Z,40.50
2022-08-02T18:52:31.206Z,41.19
2022-08-02T18:54:59.597Z,41.16
2022-08-02T18:58:17.279Z,41.88
2022-08-02T19:00:26.452Z,42.12
2022-08-02T19:02:55.043Z,42.45
2022-08-02T19:05:24.339Z,42.98
2022-08-02T19:08:12.372Z,42.48
2022-08-02T19:10:49.083Z,42.72
2022-08-02T19:13:19.545Z,42.80
2022-08-02T19:15:48.190Z,42.69
2022-08-02T19:18:16.165Z,42.88
2022-08-02T19:20:48.374Z,43.20
2022-08-02T19:23:17.139Z,43.99
2022-08-02T19:25:54.523Z,43.93
2022-08-02T19:28:26.793Z,44.17
2022-08-02T19:30:55.404Z,44.12
2022-08-02T19:33:54.310Z,44.56
2022-08-02T19:36:11.957Z,44.82
2022-08-02T19:38:43.968Z,44.79
2022-08-02T19:41:13.605Z,45.10
2022-08-02T19:44:24.131Z,45.74
2022-08-02T19:46:31.280Z,46.19
2022-08-02T19:49:20.124Z,46.48
2022-08-02T19:51:55.437Z,47.10
2022-08-02T19:54:54.185Z,47.13
2022-08-02T19:57:17.008Z,47.35
2022-08-02T19:59:49.662Z,47.62
2022-08-02T20:02:18.626Z,47.91
2022-08-02T20:04:50.301Z,48.16
2022-08-02T20:07:54.491Z,48.58
2022-08-02T20:10:10.827Z,48.76
2022-08-02T20:12:39.785Z,49.12
2022-08-02T20:15:14.698Z,49.06
2022-08-02T20:17:47.458Z,49.32
2022-08-02T20:20:16.986Z,49.89
2022-08-02T20:23:03.879Z,50.08
2022-08-02T20:25:53.978Z,50.24
2022-08-02T20:28:23.382Z,50.39
2022-08-02T20:30:53.158Z,50.46
2022-08-02T20:33:24.480Z,50.59
2022-08-02T20:35:53.141Z,50.95
2022-08-02T20:38:24.829Z,50.90
2022-08-02T20:40:55.925Z,51.02
2022-08-02T20:43:31.447Z,50.96
2022-08-02T20:46:07.416Z,51.39
2022-08-02T20:48:36.516Z,51.63
2022-08-02T20:51:09.677Z,51.79
2022-08-02T20:53:56.026Z,51.93
2022-08-02T20:56:24.756Z,52.35
2022-08-02T20:58:53.930Z,52.50
2022-08-02T21:01:36.868Z,52.82
2022-08-02T21:04:05.707Z,53.22
2022-08-02T21:06:34.390Z,53.82
2022-08-02T21:09:06.935Z,53.69
2022-08-02T21:11:35.976Z,53.87
2022-08-02T21:14:08.769Z,54.23
2022-08-02T21:16:38.938Z,54.56
2022-08-02T21:19:08.074Z,54.73
2022-08-02T21:21:38.331Z,54.71
2022-08-02T21:24:06.818Z,55.04
2022-08-02T21:26:39.730Z,55.07
2022-08-02T21:29:09.715Z,55.04
2022-08-02T21:31:44.113Z,55.15
2022-08-02T21:34:22.531Z,55.43
2022-08-02T21:36:55.922Z,55.63
2022-08-02T21:39:24.092Z,55.68
2022-08-02T21:41:53.028Z,55.63
2022-08-02T21:44:22.798Z,56.04
2022-08-02T21:46:54.383Z,56.44
2022-08-02T21:49:40.566Z,56.57
2022-08-02T21:52:16.517Z,56.73
2022-08-02T21:54:45.470Z,57.07
2022-08-02T21:57:16.161Z,56.83
2022-08-02T21:59:45.606Z,57.21
2022-08-02T22:02:16.475Z,57.81
2022-08-02T22:04:47.989Z,57.87
2022-08-02T22:07:17.796Z,57.81
2022-08-02T22:09:52.143Z,57.95
2022-08-02T22:12:26.162Z,58.02
2022-08-02T22:14:56.542Z,58.32
2022-08-02T22:17:51.063Z,58.56
2022-08-02T22:20:20.216Z,58.80
2022-08-02T22:22:50.712Z,58.82
2022-08-02T22:25:26.431Z,58.71
2022-08-02T22:28:37.281Z,59.12
2022-08-02T22:30:56.657Z,59.51
2022-08-02T22:34:00.709Z,59.35
2022-08-02T22:36:30.584Z,59.27
2022-08-02T22:38:58.978Z,59.27
2022-08-02T22:42:00.880Z,59.42
2022-08-02T22:44:18.476Z,59.59
2022-08-02T22:46:46.997Z,59.74
2022-08-02T22:49:38.579Z,60.20
2022-08-02T22:52:07.948Z,60.22
2022-08-02T22:54:35.858Z,60.27
2022-08-02T22:57:03.887Z,60.21
2022-08-02T22:59:00.084Z,40.65
2022-08-02T22:59:35.992Z,60.52
2022-08-02T23:02:08.272Z,60.81
2022-08-02T23:04:37.726Z,60.77
2022-08-02T23:07:05.803Z,60.67
2022-08-02T23:09:33.812Z,60.89
2022-08-02T23:12:02.108Z,61.56
2022-08-02T23:14:30.262Z,61.72
2022-08-02T23:17:15.787Z,62.24
2022-08-02T23:19:55.474Z,62.49
2022-08-02T23:22:30.127Z,62.84
2022-08-02T23:25:01.471Z,63.21
2022-08-02T23:27:30.092Z,62.94
2022-08-02T23:29:58.011Z,62.83
2022-08-02T23:32:26.284Z,62.90
2022-08-02T23:34:55.761Z,62.55
2022-08-02T23:37:23.968Z,62.43
2022-08-02T23:39:52.401Z,62.43
2022-08-02T23:42:20.463Z,62.75
2022-08-02T23:44:48.384Z,62.99
2022-08-02T23:47:16.961Z,62.75
2022-08-02T23:49:45.285Z,62.70
2022-08-02T23:52:14.940Z,62.78
2022-08-02T23:54:43.168Z,62.92
2022-08-02T23:57:19.612Z,63.21
2022-08-02T23:59:49.108Z,63.23
